Time;durP1;ratioP1;P1;durP2;ratioP2;P2;SDS_P1;SDS_P2;PMS_P1;PMS_P2;Temp;Humidity;BMP_temperature;BMP_pressure;BME280_temperature;BME280_humidity;BME280_pressure;Samples;Min_cycle;Max_cycle;Signal;HPM_P1;HPM_P2
2023/07/06 00:01:22;;;;;;;4.15;2.78;;;;;;;;;;4988746;28;20137;-66
2023/07/06 00:03:50;;;;;;;5.18;3.00;;;;;;;;;;4987546;28;20026;-66
2023/07/06 00:06:17;;;;;;;3.78;2.67;;;;;;;;;;4991379;28;20129;-66
2023/07/06 00:08:44;;;;;;;2.72;2.53;;;;;;;;;;4992940;28;20038;-65
2023/07/06 00:11:11;;;;;;;3.50;2.55;;;;;;;;;;4988661;28;20046;-66
2023/07/06 00:13:39;;;;;;;5.38;2.38;;;;;;;;;;4986489;28;20297;-66
2023/07/06 00:16:06;;;;;;;2.97;2.50;;;;;;;;;;4985303;28;20112;-66
2023/07/06 00:18:34;;;;;;;4.30;2.67;;;;;;;;;;4991787;28;20524;-66
2023/07/06 00:21:03;;;;;;;2.63;2.40;;;;;;;;;;4983566;28;20044;-66
2023/07/06 00:23:31;;;;;;;3.13;2.65;;;;;;;;;;4989722;28;20048;-66
2023/07/06 00:25:58;;;;;;;2.67;2.45;;;;;;;;;;4993961;28;20129;-66
2023/07/06 00:28:28;;;;;;;2.75;2.50;;;;;;;;;;4991158;28;22595;-66
2023/07/06 00:31:07;;;;;;;3.40;2.40;;;;;;;;;;4989706;28;20041;-66
2023/07/06 00:33:34;;;;;;;8.50;2.22;;;;;;;;;;4988964;28;20066;-66
2023/07/06 00:36:03;;;;;;;3.05;2.20;;;;;;;;;;4989194;28;20038;-66
2023/07/06 00:38:30;;;;;;;3.60;2.22;;;;;;;;;;4989248;28;20042;-66
2023/07/06 00:40:58;;;;;;;3.25;2.42;;;;;;;;;;4997360;28;20062;-66
2023/07/06 00:43:29;;;;;;;2.78;2.30;;;;;;;;;;4990681;28;20045;-66
2023/07/06 00:46:12;;;;;;;4.68;2.30;;;;;;;;;;4984696;28;20148;-66
2023/07/06 00:48:44;;;;;;;3.47;2.33;;;;;;;;;;4994533;28;20120;-66
2023/07/06 00:51:19;;;;;;;3.00;2.30;;;;;;;;;;4992250;28;20038;-66
2023/07/06 00:53:48;;;;;;;2.17;1.98;;;;;;;;;;4987203;28;20749;-71
2023/07/06 00:56:16;;;;;;;2.22;2.03;;;;;;;;;;4977042;28;20442;-66
2023/07/06 00:58:48;;;;;;;3.20;2.38;;;;;;;;;;4992810;28;20026;-66
2023/07/06 01:01:19;;;;;;;3.13;2.47;;;;;;;;;;4981380;28;20167;-66
2023/07/06 01:03:47;;;;;;;3.63;2.93;;;;;;;;;;4991886;28;20038;-66
2023/07/06 01:06:19;;;;;;;4.28;2.55;;;;;;;;;;4987155;28;20268;-66
2023/07/06 01:08:46;;;;;;;;;;;;;;;;;;4989150;28;20525;-66
2023/07/06 01:11:14;;;;;;;3.10;2.33;;;;;;;;;;4985106;28;19913;-66
2023/07/06 01:13:48;;;;;;;4.63;2.47;;;;;;;;;;4987281;28;20085;-66
2023/07/06 01:16:18;;;;;;;3.38;2.63;;;;;;;;;;4987298;28;21922;-65
2023/07/06 01:18:51;;;;;;;2.90;2.45;;;;;;;;;;4992106;28;20121;-66
2023/07/06 01:21:26;;;;;;;5.97;2.90;;;;;;;;;;4991467;28;20039;-66
2023/07/06 01:23:59;;;;;;;2.53;2.33;;;;;;;;;;4990138;28;20502;-66
2023/07/06 01:26:26;;;;;;;3.15;2.42;;;;;;;;;;4987314;28;20033;-66
2023/07/06 01:29:17;;;;;;;3.10;2.50;;;;;;;;;;4991845;28;20583;-66
2023/07/06 01:31:55;;;;;;;3.85;2.67;;;;;;;;;;4988865;28;20042;-71
2023/07/06 01:34:24;;;;;;;4.32;2.25;;;;;;;;;;4982857;28;20056;-66
2023/07/06 01:36:57;;;;;;;4.03;3.00;;;;;;;;;;4984502;28;20042;-66
2023/07/06 01:39:28;;;;;;;2.88;2.50;;;;;;;;;;4989900;28;20042;-66
2023/07/06 01:42:19;;;;;;;3.92;2.20;;;;;;;;;;4990085;28;20041;-66
2023/07/06 01:44:47;;;;;;;3.00;2.72;;;;;;;;;;4981755;28;20045;-66
2023/07/06 01:47:16;;;;;;;3.13;2.65;;;;;;;;;;4971982;28;20134;-65
2023/07/06 01:49:43;;;;;;;3.25;2.88;;;;;;;;;;4990988;28;20042;-71
2023/07/06 01:52:36;;;;;;;5.18;2.80;;;;;;;;;;4988947;28;20112;-71
2023/07/06 01:55:26;;;;;;;3.40;3.10;;;;;;;;;;4986794;28;20108;-71
2023/07/06 01:58:15;;;;;;;4.40;3.05;;;20.40;99.90;;;;;;4989817;28;20072;-71
2023/07/06 02:00:47;;;;;;;3.97;2.58;;;20.30;99.90;;;;;;4992323;28;20943;-71
2023/07/06 02:03:14;;;;;;;3.15;2.70;;;20.20;99.90;;;;;;4992311;28;20104;-71
2023/07/06 02:05:40;;;;;;;5.57;2.63;;;20.10;99.90;;;;;;4994449;28;20037;-71
2023/07/06 02:08:08;;;;;;;4.50;2.83;;;20.00;99.90;;;;;;4989017;28;20054;-71
2023/07/06 02:10:34;;;;;;;3.28;2.60;;;20.00;99.90;;;;;;4991007;28;20042;-71
2023/07/06 02:13:00;;;;;;;4.97;2.83;;;19.90;99.90;;;;;;4988433;28;20404;-71
2023/07/06 02:15:27;;;;;;;4.22;3.00;;;19.90;99.90;;;;;;4986741;28;20069;-71
2023/07/06 02:17:55;;;;;;;3.42;2.88;;;19.90;99.90;;;;;;4992592;28;20953;-71
2023/07/06 02:20:21;;;;;;;3.83;3.03;;;19.90;99.90;;;;;;4981999;28;20026;-71
2023/07/06 02:22:47;;;;;;;3.08;2.63;;;19.90;99.90;;;;;;4993924;28;20034;-70
2023/07/06 02:25:13;;;;;;;2.67;2.47;;;19.90;99.90;;;;;;4988394;28;20470;-70
2023/07/06 02:27:39;;;;;;;5.85;3.03;;;19.80;99.90;;;;;;4988651;28;20614;-71
2023/07/06 02:30:05;;;;;;;2.80;2.47;;;19.60;99.90;;;;;;4983969;28;20060;-71
2023/07/06 02:32:32;;;;;;;4.50;3.05;;;19.60;99.90;;;;;;4989240;28;20045;-71
2023/07/06 02:34:58;;;;;;;3.00;2.70;;;19.50;99.90;;;;;;4993105;28;20046;-71
2023/07/06 02:37:24;;;;;;;3.00;2.70;;;19.50;99.90;;;;;;4990050;28;20066;-71
2023/07/06 02:39:50;;;;;;;2.95;2.50;;;19.50;99.90;;;;;;4992076;28;20499;-71
2023/07/06 02:42:17;;;;;;;2.95;2.53;;;19.40;99.90;;;;;;4987330;28;20044;-71
2023/07/06 02:44:43;;;;;;;3.17;2.88;;;19.30;99.90;;;;;;4991702;28;20620;-66
2023/07/06 02:47:10;;;;;;;3.78;3.25;;;19.30;99.90;;;;;;4985828;28;20046;-66
2023/07/06 02:49:36;;;;;;;5.15;2.58;;;19.30;99.90;;;;;;4979308;28;20034;-66
2023/07/06 02:52:02;;;;;;;3.22;2.63;;;19.30;99.90;;;;;;4987945;28;20129;-66
2023/07/06 02:54:28;;;;;;;3.47;2.85;;;19.20;99.90;;;;;;4986835;28;20406;-66
2023/07/06 02:56:56;;;;;;;5.38;3.47;;;19.10;99.90;;;;;;4989963;28;20034;-66
2023/07/06 02:59:21;;;;;;;3.75;3.00;;;19.10;99.90;;;;;;4993409;28;20065;-66
2023/07/06 03:01:47;;;;;;;5.28;2.90;;;19.20;99.90;;;;;;4970658;28;20175;-66
2023/07/06 03:04:12;;;;;;;3.30;3.00;;;19.30;99.90;;;;;;4996596;28;20042;-66
2023/07/06 03:06:38;;;;;;;7.80;3.28;;;19.40;99.90;;;;;;4990155;28;20053;-66
2023/07/06 03:09:05;;;;;;;4.70;2.50;;;19.40;99.90;;;;;;4995815;28;20037;-65
2023/07/06 03:11:34;;;;;;;2.63;2.17;;;19.40;99.90;;;;;;4984217;28;21247;-65
2023/07/06 03:14:02;;;;;;;6.32;2.63;;;19.20;99.90;;;;;;4995312;28;20042;-65
2023/07/06 03:16:28;;;;;;;3.50;3.20;;;19.10;99.90;;;;;;4990766;28;20038;-65
2023/07/06 03:18:53;;;;;;;3.75;3.10;;;19.10;99.90;;;;;;4992482;28;20164;-65
2023/07/06 03:21:20;;;;;;;4.10;3.33;;;19.10;99.90;;;;;;4991845;28;20125;-64
2023/07/06 03:23:49;;;;;;;4.88;3.08;;;19.10;99.90;;;;;;4987898;28;20049;-70
2023/07/06 03:26:15;;;;;;;4.13;3.28;;;19.10;99.90;;;;;;4991093;28;20022;-70
2023/07/06 03:28:40;;;;;;;4.78;3.40;;;19.10;99.90;;;;;;4983295;28;20512;-69
2023/07/06 03:31:07;;;;;;;4.95;3.40;;;19.10;99.90;;;;;;4993370;28;20042;-70
2023/07/06 03:33:32;;;;;;;4.15;3.30;;;19.10;99.90;;;;;;4991389;28;20046;-70
2023/07/06 03:35:58;;;;;;;3.92;3.20;;;19.10;99.90;;;;;;4993563;28;20123;-69
2023/07/06 03:38:25;;;;;;;3.50;3.10;;;19.10;99.90;;;;;;4996115;28;20042;-69
2023/07/06 03:40:52;;;;;;;4.88;3.97;;;19.10;99.90;;;;;;4992936;28;20025;-65
2023/07/06 03:43:19;;;;;;;5.38;3.47;;;19.10;99.90;;;;;;4991672;28;20117;-70
2023/07/06 03:45:47;;;;;;;6.25;3.72;;;19.20;99.90;;;;;;4982638;28;20045;-70
2023/07/06 03:48:15;;;;;;;4.07;3.42;;;19.20;99.90;;;;;;4989032;28;20081;-70
2023/07/06 03:50:43;;;;;;;6.47;3.60;;;19.30;99.90;;;;;;4998716;28;20671;-70
2023/07/06 03:53:09;;;;;;;4.80;3.45;;;19.40;99.90;;;;;;4995121;28;20141;-70
2023/07/06 03:55:35;;;;;;;4.70;3.75;;;19.50;99.90;;;;;;4987438;28;20057;-69
2023/07/06 03:58:01;;;;;;;4.15;3.45;;;19.60;99.90;;;;;;4986721;28;20486;-69
2023/07/06 04:00:28;;;;;;;6.60;3.58;;;19.70;99.90;;;;;;4986910;28;20034;-70
2023/07/06 04:02:56;;;;;;;4.25;3.58;;;19.70;99.90;;;;;;4984388;28;20110;-70
2023/07/06 04:05:31;;;;;;;3.67;3.20;;;19.80;99.90;;;;;;4993031;28;20076;-70
2023/07/06 04:07:57;;;;;;;5.47;3.00;;;19.80;99.90;;;;;;4992638;28;20038;-69
2023/07/06 04:10:23;;;;;;;3.63;3.15;;;19.90;99.90;;;;;;4980076;28;20065;-69
2023/07/06 04:12:49;;;;;;;6.75;3.70;;;20.10;99.90;;;;;;4988681;28;20252;-69
2023/07/06 04:15:20;;;;;;;6.60;3.30;;;20.20;99.90;;;;;;4992495;28;20069;-70
2023/07/06 04:17:52;;;;;;;4.75;3.20;;;20.20;99.90;;;;;;4989216;28;20038;-65
2023/07/06 04:20:27;;;;;;;3.90;3.50;;;20.30;99.90;;;;;;4999421;28;20053;-65
2023/07/06 04:22:54;;;;;;;4.47;3.58;;;20.30;99.90;;;;;;4997715;28;20046;-65
2023/07/06 04:25:22;;;;;;;4.38;3.20;;;20.40;99.90;;;;;;4992650;28;20018;-65
2023/07/06 04:27:48;;;;;;;4.60;3.70;;;20.40;99.90;;;;;;4993407;28;20124;-65
2023/07/06 04:30:16;;;;;;;3.90;2.88;;;20.50;99.90;;;;;;4988993;28;20022;-65
2023/07/06 04:32:42;;;;;;;7.25;3.60;;;20.60;99.90;;;;;;4988417;28;20136;-65
2023/07/06 04:35:13;;;;;;;5.57;3.65;;;20.60;99.90;;;;;;4996984;28;20121;-70
2023/07/06 04:37:41;;;;;;;4.28;3.63;;;20.70;99.90;;;;;;4990325;28;20546;-70
2023/07/06 04:40:12;;;;;;;3.78;3.17;;;20.70;99.90;;;;;;4995561;28;20124;-70
2023/07/06 04:42:40;;;;;;;4.90;3.22;;;20.70;99.90;;;;;;4992689;28;20033;-70
2023/07/06 04:45:09;;;;;;;4.38;3.10;;;;;;;;;;4992395;28;20046;-69
2023/07/06 04:47:39;;;;;;;7.05;2.85;;;20.90;99.90;;;;;;4991979;28;20110;-70
2023/07/06 04:50:11;;;;;;;4.93;3.05;;;21.00;99.90;;;;;;4985267;28;20506;-69
2023/07/06 04:52:39;;;;;;;3.33;3.03;;;;;;;;;;4989133;28;20747;-70
2023/07/06 04:55:06;;;;;;;5.47;3.17;;;;;;;;;;4986977;28;20529;-64
2023/07/06 04:57:33;;;;;;;6.18;2.92;;;;;;;;;;4987518;28;20431;-65
2023/07/06 05:00:15;;;;;;;2.95;2.65;;;;;;;;;;4992081;28;20092;-64
2023/07/06 05:02:42;;;;;;;;;;;;;;;;;;4993265;28;20048;-65
2023/07/06 05:05:15;;;;;;;6.38;2.85;;;;;;;;;;4988418;28;19924;-65
2023/07/06 05:07:42;;;;;;;6.18;3.00;;;;;;;;;;4988714;28;20044;-64
2023/07/06 05:10:10;;;;;;;3.60;2.80;;;;;;;;;;4993956;28;20050;-64
2023/07/06 05:12:38;;;;;;;2.97;2.67;;;;;;;;;;4986926;28;20572;-69
2023/07/06 05:15:07;;;;;;;5.90;2.60;;;;;;;;;;4987814;28;20034;-69
2023/07/06 05:17:34;;;;;;;3.10;2.67;;;;;;;;;;4974382;28;20053;-70
2023/07/06 05:20:01;;;;;;;3.28;2.40;;;;;;;;;;4991399;28;20034;-71
2023/07/06 05:22:28;;;;;;;7.18;2.60;;;;;;;;;;4991414;28;20050;-69
2023/07/06 05:24:55;;;;;;;5.93;2.50;;;;;;;;;;4992729;28;20042;-69
2023/07/06 05:27:24;;;;;;;3.20;2.90;;;;;;;;;;4994610;28;20034;-70
2023/07/06 05:29:52;;;;;;;3.35;2.85;;;;;;;;;;4987891;28;20026;-64
2023/07/06 05:32:19;;;;;;;3.83;2.92;;;;;;;;;;4988600;28;20560;-69
2023/07/06 05:34:46;;;;;;;2.95;2.58;;;;;;;;;;4992309;28;20100;-69
2023/07/06 05:37:13;;;;;;;7.20;2.50;;;;;;;;;;4990853;28;20038;-69
2023/07/06 05:39:40;;;;;;;5.47;2.72;;;;;;;;;;4993502;28;20100;-69
2023/07/06 05:42:08;;;;;;;4.10;2.75;;;;;;;;;;4979649;28;20124;-69
2023/07/06 05:44:35;;;;;;;2.47;2.20;;;;;;;;;;4983850;28;20038;-69
2023/07/06 05:47:03;;;;;;;5.22;2.80;;;;;;;;;;4992106;28;20042;-69
2023/07/06 05:49:30;;;;;;;3.65;2.60;;;;;;;;;;4992077;28;20038;-69
2023/07/06 05:51:57;;;;;;;6.10;2.42;;;;;;;;;;4993312;28;20061;-69
2023/07/06 05:54:24;;;;;;;4.35;2.33;;;;;;;;;;4987515;28;20069;-70
2023/07/06 05:56:52;;;;;;;2.55;2.08;;;;;;;;;;4989398;28;20115;-70
2023/07/06 05:59:19;;;;;;;15.70;3.80;;;;;;;;;;4994696;28;20601;-70
2023/07/06 06:01:47;;;;;;;5.18;2.53;;;;;;;;;;4970482;28;20042;-70
2023/07/06 06:04:14;;;;;;;6.90;2.45;;;;;;;;;;4984179;28;20046;-67
2023/07/06 06:06:48;;;;;;;3.55;2.83;;;;;;;;;;4981272;28;20101;-66
2023/07/06 06:09:17;;;;;;;4.75;2.83;;;;;;;;;;4990552;28;20112;-67
2023/07/06 06:11:48;;;;;;;4.82;2.15;;;;;;;;;;4984383;28;20546;-68
2023/07/06 06:14:17;;;;;;;2.67;2.45;;;;;;;;;;4992529;28;20054;-67
2023/07/06 06:16:45;;;;;;;3.42;2.22;;;;;;;;;;4989009;28;20041;-67
2023/07/06 06:19:16;;;;;;;3.88;2.30;;;;;;;;;;4994200;28;20378;-67
2023/07/06 06:21:45;;;;;;;5.40;2.90;;;;;;;;;;4986339;28;21460;-67
2023/07/06 06:24:14;;;;;;;2.40;2.10;;;;;;;;;;4989641;28;20406;-67
2023/07/06 06:26:43;;;;;;;6.55;2.40;;;;;;;;;;4994957;28;20507;-69
2023/07/06 06:29:12;;;;;;;3.35;2.45;;;;;;;;;;4995243;28;20407;-70
2023/07/06 06:31:43;;;;;;;5.95;2.10;;;;;;;;;;4990039;28;20042;-70
2023/07/06 06:34:12;;;;;;;2.92;2.45;;;;;;;;;;4990581;28;20046;-70
2023/07/06 06:36:42;;;;;;;2.90;2.45;;;;;;;;;;4990217;28;20029;-70
2023/07/06 06:39:10;;;;;;;3.10;2.35;;;;;;;;;;4991982;28;20061;-70
2023/07/06 06:41:39;;;;;;;3.72;2.40;;;;;;;;;;4989105;28;20904;-70
2023/07/06 06:44:09;;;;;;;4.60;2.40;;;;;;;;;;4993068;28;20368;-69
2023/07/06 06:46:38;;;;;;;3.70;2.22;;;;;;;;;;4994628;28;20292;-68
2023/07/06 06:49:07;;;;;;;2.78;2.40;;;;;;;;;;4999015;28;20401;-68
2023/07/06 06:51:36;;;;;;;4.03;2.10;;;;;;;;;;4993910;28;20038;-68
2023/07/06 06:54:04;;;;;;;12.10;2.70;;;;;;;;;;4993994;28;20092;-68
2023/07/06 06:56:35;;;;;;;4.85;2.08;;;;;;;;;;4994027;28;20030;-68
2023/07/06 06:59:04;;;;;;;7.85;2.42;;;;;;;;;;4986992;28;20039;-68
2023/07/06 07:01:32;;;;;;;5.57;2.25;;;;;;;;;;4983273;28;20148;-68
2023/07/06 07:04:02;;;;;;;3.80;2.88;;;;;;;;;;4996834;28;20045;-68
2023/07/06 07:06:31;;;;;;;4.63;3.00;;;;;;;;;;4977319;28;20857;-68
2023/07/06 07:09:00;;;;;;;3.38;2.35;;;;;;;;;;4991385;28;20050;-68
2023/07/06 07:11:28;;;;;;;4.78;2.50;;;;;;;;;;4993936;28;20117;-68
2023/07/06 07:13:56;;;;;;;4.63;2.50;;;;;;;;;;4991841;28;20688;-68
2023/07/06 07:16:25;;;;;;;5.18;2.10;;;;;;;;;;4993444;28;20050;-67
2023/07/06 07:18:54;;;;;;;6.25;2.55;;;;;;;;;;4990569;28;20038;-67
2023/07/06 07:21:21;;;;;;;6.70;2.30;;;;;;;;;;4996948;28;20096;-67
2023/07/06 07:23:51;;;;;;;4.97;2.15;;;;;;;;;;4981635;28;20632;-69
2023/07/06 07:26:24;;;;;;;4.63;2.28;;;;;;;;;;4986069;28;20053;-69
2023/07/06 07:28:51;;;;;;;3.00;2.30;;;;;;;;;;4991700;28;20038;-69
2023/07/06 07:31:21;;;;;;;3.15;2.25;;;;;;;;;;4984772;28;20349;-69
2023/07/06 07:33:49;;;;;;;8.48;2.72;;;;;;;;;;4991699;28;20224;-69
2023/07/06 07:36:17;;;;;;;5.55;2.55;;;;;;;;;;4991209;28;20210;-70
2023/07/06 07:38:47;;;;;;;7.43;2.92;;;;;;;;;;4987827;28;20038;-73
2023/07/06 07:41:18;;;;;;;8.00;2.50;;;;;;;;;;4982374;28;20053;-64
2023/07/06 07:43:48;;;;;;;3.60;2.40;;;;;;;;;;4989193;28;20042;-64
2023/07/06 07:46:17;;;;;;;2.80;2.47;;;;;;;;;;4993524;28;20123;-63
2023/07/06 07:48:47;;;;;;;3.42;2.58;;;;;;;;;;4995117;28;20333;-64
2023/07/06 07:51:15;;;;;;;3.95;2.50;;;;;;;;;;4984998;28;20045;-64
2023/07/06 07:53:44;;;;;;;4.90;2.90;;;;;;;;;;4992959;28;20034;-64
2023/07/06 07:56:15;;;;;;;7.18;2.88;;;;;;;;;;4984283;28;20145;-64
2023/07/06 07:58:48;;;;;;;3.95;2.88;;;;;;;;;;4962220;28;20398;-64
2023/07/06 08:01:17;;;;;;;4.95;2.67;;;;;;;;;;4989304;28;20046;-64
2023/07/06 08:03:47;;;;;;;7.55;2.88;;;;;;;;;;4980120;28;20306;-64
2023/07/06 08:06:21;;;;;;;8.18;3.30;;;;;;;;;;4978810;28;20049;-65
2023/07/06 08:08:51;;;;;;;5.78;2.65;;;;;;;;;;4985195;28;20057;-64
2023/07/06 08:11:21;;;;;;;5.85;2.53;;;;;;;;;;4988001;28;20043;-65
2023/07/06 08:13:50;;;;;;;3.55;2.65;;;;;;;;;;4984495;28;20034;-65
2023/07/06 08:16:20;;;;;;;3.38;2.53;;;;;;;;;;4977663;28;20152;-66
2023/07/06 08:18:49;;;;;;;4.53;2.42;;;;;;;;;;4984402;28;20042;-66
2023/07/06 08:21:19;;;;;;;5.10;2.50;;;;;;;;;;4980740;28;20042;-66
2023/07/06 08:23:53;;;;;;;7.03;3.05;;;;;;;;;;4991410;28;20039;-66
2023/07/06 08:26:22;;;;;;;3.40;3.03;;;;;;;;;;4991183;28;20042;-66
2023/07/06 08:28:51;;;;;;;7.30;3.10;;;;;;;;;;4990508;28;21908;-66
2023/07/06 08:31:21;;;;;;;3.83;2.88;;;;;;;;;;4986980;28;20042;-66
2023/07/06 08:33:51;;;;;;;6.22;3.25;;;;;;;;;;4987567;28;20502;-64
2023/07/06 08:36:21;;;;;;;4.72;2.97;;;;;;;;;;4993778;28;20585;-66
2023/07/06 08:38:54;;;;;;;6.72;3.08;;;;;;;;;;4976071;28;20041;-66
2023/07/06 08:41:26;;;;;;;3.20;2.90;;;;;;;;;;4973839;28;21381;-66
2023/07/06 08:43:56;;;;;;;8.52;3.50;;;;;;;;;;4984512;28;20049;-66
2023/07/06 08:46:27;;;;;;;4.22;3.00;;;;;;;;;;4962401;28;20779;-66
2023/07/06 08:48:56;;;;;;;4.10;3.08;;;;;;;;;;4996994;28;20466;-65
2023/07/06 08:51:30;;;;;;;4.43;2.80;;;;;;;;;;4994995;28;20518;-65
2023/07/06 08:54:04;;;;;;;4.38;2.70;;;;;;;;;;4990974;28;20040;-66
2023/07/06 08:56:36;;;;;;;3.83;2.50;;;;;;;;;;4994278;28;20045;-65
2023/07/06 08:59:07;;;;;;;3.25;2.35;;;;;;;;;;4991085;28;20140;-65
2023/07/06 09:01:37;;;;;;;3.65;2.20;;;;;;;;;;4989543;28;20127;-65
2023/07/06 09:04:16;;;;;;;2.58;2.25;;;;;;;;;;4981392;28;20033;-66
2023/07/06 09:06:52;;;;;;;7.45;2.67;;;;;;;;;;4987662;28;20045;-65
2023/07/06 09:09:21;;;;;;;4.07;2.30;;;;;;;;;;4989852;28;20049;-66
2023/07/06 09:11:50;;;;;;;5.75;2.63;;;;;;;;;;4994973;28;20077;-66
2023/07/06 09:14:19;;;;;;;4.30;2.40;;;;;;;;;;4992730;28;20038;-66
2023/07/06 09:16:48;;;;;;;4.88;3.00;;;;;;;;;;4990565;28;20057;-66
2023/07/06 09:19:15;;;;;;;2.40;2.20;;;;;;;;;;4964509;28;20099;-66
2023/07/06 09:21:43;;;;;;;7.60;2.58;;;;;;;;;;4967916;28;20859;-66
2023/07/06 09:24:11;;;;;;;3.60;2.50;;;;;;;;;;4970959;28;20496;-66
2023/07/06 09:26:38;;;;;;;3.67;2.13;;;;;;;;;;4972228;28;20050;-66
2023/07/06 09:29:13;;;;;;;7.57;2.45;;;;;;;;;;4963537;28;20112;-66
2023/07/06 09:31:40;;;;;;;4.55;2.00;;;;;;;;;;4970160;28;20049;-66
2023/07/06 09:34:10;;;;;;;2.25;1.75;;;;;;;;;;4974648;28;20064;-66
2023/07/06 09:36:36;;;;;;;2.13;1.92;;;;;;;;;;4978737;28;20064;-67
2023/07/06 09:39:04;;;;;;;4.07;2.10;;;;;;;;;;4983200;28;20040;-66
2023/07/06 09:41:32;;;;;;;3.17;2.28;;;;;;;;;;4965643;28;20099;-65
2023/07/06 09:43:59;;;;;;;9.55;2.28;;;;;;;;;;4991168;28;20038;-65
2023/07/06 09:46:29;;;;;;;3.45;2.13;;;;;;;;;;4987553;28;20050;-65
2023/07/06 09:48:55;;;;;;;3.72;2.05;;;;;;;;;;4987489;28;20069;-64
2023/07/06 09:51:43;;;;;;;3.85;2.42;;;;;;;;;;4991137;28;20129;-64
2023/07/06 09:54:17;;;;;;;3.05;2.53;;;;;;;;;;4990005;28;20642;-64
2023/07/06 09:56:44;;;;;;;3.50;2.85;;;;;;;;;;4978792;28;20060;-64
2023/07/06 09:59:11;;;;;;;3.83;2.05;;;;;;;;;;4984433;28;20050;-64
2023/07/06 10:01:37;;;;;;;3.72;2.22;;;;;;;;;;4982783;28;20034;-64
2023/07/06 10:04:21;;;;;;;3.50;2.35;;;;;;;;;;4992727;28;20099;-64
2023/07/06 10:06:56;;;;;;;2.45;2.05;;;;;;;;;;4984076;28;20133;-64
2023/07/06 10:09:26;;;;;;;4.95;2.50;;;;;;;;;;4991761;28;20076;-64
2023/07/06 10:11:53;;;;;;;4.05;2.40;;;;;;;;;;4972881;28;20042;-64
2023/07/06 10:14:38;;;;;;;3.50;1.98;;;;;;;;;;4970868;28;20030;-64
2023/07/06 10:17:30;;;;;;;3.42;1.83;;;;;;;;;;4973361;28;20062;-64
2023/07/06 10:20:17;;;;;;;2.85;2.22;;;;;;;;;;4969842;28;20227;-64
2023/07/06 10:22:49;;;;;;;2.53;2.17;;;;;;;;;;4972995;28;20044;-64
2023/07/06 10:25:39;;;;;;;3.88;2.53;;;;;;;;;;4975423;28;20059;-64
2023/07/06 10:28:25;;;;;;;3.75;2.42;;;;;;;;;;4970047;28;20050;-65
2023/07/06 10:30:53;;;;;;;2.90;2.55;;;;;;;;;;4971023;28;20041;-65
2023/07/06 10:33:24;;;;;;;4.07;2.28;;;;;;;;;;4966059;28;20038;-65
2023/07/06 10:35:52;;;;;;;4.03;2.50;;;;;;;;;;4974349;28;20081;-65
2023/07/06 10:38:18;;;;;;;2.75;2.20;;;;;;;;;;4974922;28;20046;-65
2023/07/06 10:40:49;;;;;;;4.43;2.35;;;;;;;;;;4958318;28;20026;-65
2023/07/06 10:43:16;;;;;;;4.93;2.25;;;;;;;;;;4974721;28;20532;-64
2023/07/06 10:45:42;;;;;;;2.22;1.92;;;;;;;;;;4962112;28;20026;-65
2023/07/06 10:48:27;;;;;;;4.03;2.53;;;;;;;;;;4968507;28;20037;-65
2023/07/06 10:51:14;;;;;;;4.93;2.47;;;;;;;;;;4971758;28;20037;-65
2023/07/06 10:53:41;;;;;;;2.90;2.70;;;;;;;;;;4967361;28;20087;-65
2023/07/06 10:56:17;;;;;;;6.72;2.50;;;;;;;;;;4959708;28;20058;-65
2023/07/06 10:58:48;;;;;;;3.22;2.00;;;;;;;;;;4959428;28;20695;-65
2023/07/06 11:01:16;;;;;;;4.43;2.15;;;;;;;;;;4968492;28;20035;-65
2023/07/06 11:03:43;;;;;;;5.38;2.35;;;;;;;;;;4958914;28;20041;-64
2023/07/06 11:06:18;;;;;;;3.33;2.35;;;;;;;;;;4974015;28;20093;-64
2023/07/06 11:09:03;;;;;;;5.22;2.20;;;;;;;;;;4980119;28;20089;-64
2023/07/06 11:11:30;;;;;;;5.13;2.15;;;;;;;;;;4992302;28;21615;-64
2023/07/06 11:13:56;;;;;;;2.53;2.20;;;;;;;;;;4996842;28;20313;-64
2023/07/06 11:16:26;;;;;;;2.83;2.28;;;;;;;;;;4996199;28;20492;-64
2023/07/06 11:18:54;;;;;;;3.55;3.17;;;;;;;;;;4980199;28;20157;-64
2023/07/06 11:21:38;;;;;;;3.45;2.55;;;;;;;;;;4997891;28;20042;-65
2023/07/06 11:24:08;;;;;;;2.60;1.83;;;;;;;;;;4978567;28;20076;-66
2023/07/06 11:26:40;;;;;;;4.38;2.35;;;;;;;;;;4995432;28;20030;-65
2023/07/06 11:29:08;;;;;;;;;;;;;;;;;;4991242;28;20042;-68
2023/07/06 11:31:53;;;;;;;6.05;2.35;;;;;;;;;;4990378;28;20467;-67
2023/07/06 11:34:22;;;;;;;4.85;2.20;;;;;;;;;;4980633;28;20033;-66
2023/07/06 11:36:55;;;;;;;3.70;2.30;;;;;;;;;;4991565;28;20056;-67
2023/07/06 11:39:31;;;;;;;4.95;2.20;;;;;;;;;;4982094;28;20034;-66
2023/07/06 11:42:04;;;;;;;4.78;2.60;;;;;;;;;;4982171;28;20041;-68
2023/07/06 11:44:31;;;;;;;4.30;2.58;;;;;;;;;;4989782;28;20077;-66
2023/07/06 11:46:57;;;;;;;5.53;2.40;;;;;;;;;;4987866;28;20037;-66
2023/07/06 11:49:36;;;;;;;5.57;2.10;;;;;;;;;;4974749;28;20446;-65
2023/07/06 11:52:04;;;;;;;4.22;1.92;;;;;;;;;;4989780;28;20687;-66
2023/07/06 11:54:48;;;;;;;5.85;2.53;;;;;;;;;;4988463;28;20072;-65
2023/07/06 11:57:46;;;;;;;10.13;2.28;;;;;;;;;;4987334;28;20050;-66
2023/07/06 12:00:33;;;;;;;3.13;1.80;;;;;;;;;;4988515;28;20518;-65
2023/07/06 12:03:08;;;;;;;3.55;1.65;;;;;;;;;;4970523;28;20069;-67
2023/07/06 12:05:37;;;;;;;2.38;1.60;;;;;;;;;;4986042;28;20140;-66
2023/07/06 12:08:10;;;;;;;3.25;2.40;;;;;;;;;;4979989;28;20067;-67
2023/07/06 12:10:36;;;;;;;4.70;2.20;;;;;;;;;;4988115;28;20054;-67
2023/07/06 12:13:05;;;;;;;3.10;2.10;;;;;;;;;;4988520;28;20042;-66
2023/07/06 12:15:31;;;;;;;2.90;1.90;;;;;;;;;;4987805;28;20129;-67
2023/07/06 12:17:57;;;;;;;2.83;2.25;;;;;;;;;;4975920;28;20527;-67
2023/07/06 12:20:26;;;;;;;2.60;1.88;;;;;;;;;;4987925;28;20560;-66
2023/07/06 12:22:53;;;;;;;3.75;2.40;;;;;;;;;;4986003;28;20042;-68
2023/07/06 12:25:23;;;;;;;4.00;1.70;;;;;;;;;;4978474;28;20109;-68
2023/07/06 12:27:50;;;;;;;3.17;2.00;;;;;;;;;;4983161;28;20046;-67
2023/07/06 12:30:17;;;;;;;3.00;2.05;;;;;;;;;;4982082;28;20057;-67
2023/07/06 12:32:47;;;;;;;3.13;2.00;;;;;;;;;;4978958;28;20041;-67
2023/07/06 12:35:13;;;;;;;3.95;2.05;;;;;;;;;;4984112;28;20053;-66
2023/07/06 12:37:42;;;;;;;2.08;1.88;;;;;;;;;;4993554;28;20050;-66
2023/07/06 12:40:23;;;;;;;2.90;2.15;;;;;;;;;;4997678;28;20038;-66
2023/07/06 12:42:51;;;;;;;2.63;1.80;;;;;;;;;;4985596;28;20040;-66
2023/07/06 12:45:20;;;;;;;10.88;2.28;;;;;;;;;;4988036;28;20042;-66
2023/07/06 12:47:47;;;;;;;3.08;1.83;;;;;;;;;;4981504;28;20044;-67
2023/07/06 12:50:26;;;;;;;9.57;2.40;;;;;;;;;;4986367;28;20037;-65
2023/07/06 12:52:54;;;;;;;3.13;2.35;;;;;;;;;;4980631;28;20061;-65
2023/07/06 12:55:21;;;;;;;3.10;2.38;;;;;;;;;;4990194;28;20034;-66
2023/07/06 12:57:48;;;;;;;4.63;2.47;;;;;;;;;;4993396;28;21386;-66
2023/07/06 13:00:15;;;;;;;3.90;2.33;;;;;;;;;;4994341;28;20041;-66
2023/07/06 13:02:42;;;;;;;6.32;2.88;;;;;;;;;;4994918;28;20038;-66
2023/07/06 13:05:24;;;;;;;3.35;2.20;;;;;;;;;;4990355;28;20042;-67
2023/07/06 13:07:51;;;;;;;3.13;2.30;;;;;;;;;;4992615;28;20038;-66
2023/07/06 13:10:19;;;;;;;3.25;2.35;;;;;;;;;;4992809;28;20101;-65
2023/07/06 13:12:48;;;;;;;5.38;2.38;;;;;;;;;;4990809;28;20120;-65
2023/07/06 13:15:16;;;;;;;3.38;2.55;;;;;;;;;;4991886;28;20034;-65
2023/07/06 13:17:49;;;;;;;5.47;2.60;;;;;;;;;;4991344;28;20431;-65
2023/07/06 13:20:15;;;;;;;2.88;2.33;;;;;;;;;;4988845;28;20050;-67
2023/07/06 13:22:41;;;;;;;3.80;2.40;;;;;;;;;;4988018;28;20043;-66
2023/07/06 13:25:18;;;;;;;6.45;2.20;;;;;;;;;;4991965;28;20105;-67
2023/07/06 13:27:48;;;;;;;8.73;3.00;;;;;;;;;;4995058;28;20033;-66
2023/07/06 13:30:17;;;;;;;3.38;2.40;;;;;;;;;;4992657;28;20042;-66
2023/07/06 13:32:43;;;;;;;4.55;2.05;;;;;;;;;;4990343;28;20110;-66
2023/07/06 13:35:12;;;;;;;4.85;2.20;;;;;;;;;;4991468;28;20059;-66
2023/07/06 13:37:41;;;;;;;2.38;2.17;;;;;;;;;;4993334;28;20336;-66
2023/07/06 13:40:08;;;;;;;6.60;2.40;;;;;;;;;;4990667;28;20741;-67
2023/07/06 13:42:34;;;;;;;3.05;2.40;;;;;;;;;;4987766;28;20197;-67
2023/07/06 13:45:00;;;;;;;4.85;2.10;;;;;;;;;;4991366;28;20660;-67
2023/07/06 13:47:28;;;;;;;7.22;2.58;;;;;;;;;;4989164;28;20070;-68
2023/07/06 13:49:56;;;;;;;2.40;2.03;;;;;;;;;;4992286;28;20060;-65
2023/07/06 13:52:22;;;;;;;2.38;1.90;;;;;;;;;;4989675;28;20026;-66
2023/07/06 13:54:48;;;;;;;4.18;2.13;;;;;;;;;;4991329;28;20034;-66
2023/07/06 13:57:14;;;;;;;3.33;2.00;;;;;;;;;;4984309;28;20053;-66
2023/07/06 13:59:40;;;;;;;2.80;2.20;;;;;;;;;;4992907;28;20049;-66
2023/07/06 14:02:06;;;;;;;2.60;1.60;;;;;;;;;;4990100;28;20042;-66
2023/07/06 14:04:33;;;;;;;2.20;2.00;;;;;;;;;;4988660;28;20038;-66
2023/07/06 14:06:59;;;;;;;3.05;2.45;;;;;;;;;;4997007;28;20030;-68
2023/07/06 14:09:26;;;;;;;1.58;1.48;;;;;;;;;;4988123;28;20034;-68
2023/07/06 14:11:52;;;;;;;3.70;1.60;;;;;;;;;;4994232;28;20038;-68
2023/07/06 14:14:18;;;;;;;3.15;2.00;;;;;;;;;;4993409;28;20164;-68
2023/07/06 14:16:47;;;;;;;1.80;1.70;;;;;;;;;;4990586;28;20064;-68
2023/07/06 14:19:13;;;;;;;2.08;1.88;;;;;;;;;;4994806;28;20042;-66
2023/07/06 14:21:41;;;;;;;1.98;1.80;;;;;;;;;;4994574;28;20516;-67
2023/07/06 14:24:07;;;;;;;2.10;1.80;;;;;;;;;;4993736;28;20034;-67
2023/07/06 14:26:33;;;;;;;2.15;1.95;;;;;;;;;;4994887;28;20057;-65
2023/07/06 14:28:59;;;;;;;3.17;2.35;;;;;;;;;;4990850;28;20494;-65
2023/07/06 14:31:27;;;;;;;2.85;1.55;;;;;;;;;;4983148;28;20096;-64
2023/07/06 14:33:53;;;;;;;2.05;1.85;;;;;;;;;;4984026;28;20146;-64